Aviation Digital Data Service (ADDS)

Output produced by METARs form (0707 UTC 06 February 2016)
found at http://aviationweather.gov/adds/metars/
 
KSYR 060531Z 0606/0706 22007KT P6SM BKN070 
     FM061400 24010G18KT P6SM BKN050 
     FM062300 25005KT P6SM SCT040 SCT100